sensor_id;sensor_type;location;lat;lon;timestamp;pressure;altitude;pressure_sealevel;temperature;humidity
11017;BME280;54687;50.800;6.772;2023-02-13T00:02:08;61155.81;;;-144.06;59.58
11017;BME280;54687;50.800;6.772;2023-02-13T00:04:35;61189.34;;;-144.06;59.70
11017;BME280;54687;50.800;6.772;2023-02-13T00:07:01;61126.44;;;-144.06;59.57
11017;BME280;54687;50.800;6.772;2023-02-13T00:09:28;61109.69;;;-144.06;59.62
11017;BME280;54687;50.800;6.772;2023-02-13T00:11:56;61157.91;;;-144.06;59.72
11017;BME280;54687;50.800;6.772;2023-02-13T00:14:23;61132.75;;;-144.06;59.77
11017;BME280;54687;50.800;6.772;2023-02-13T00:16:49;61164.19;;;-144.06;59.60
11017;BME280;54687;50.800;6.772;2023-02-13T00:19:16;61164.19;;;-144.06;59.64
11017;BME280;54687;50.800;6.772;2023-02-13T00:21:42;61126.44;;;-144.06;59.52
11017;BME280;54687;50.800;6.772;2023-02-13T00:24:09;61153.69;;;-144.06;59.71
11017;BME280;54687;50.800;6.772;2023-02-13T00:26:36;61145.31;;;-144.06;59.57
11017;BME280;54687;50.800;6.772;2023-02-13T00:29:05;61172.56;;;-144.06;59.62
11017;BME280;54687;50.800;6.772;2023-02-13T00:31:32;61151.59;;;-144.06;59.61
11017;BME280;54687;50.800;6.772;2023-02-13T00:33:58;61160.00;;;-144.06;59.50
11017;BME280;54687;50.800;6.772;2023-02-13T00:36:25;61153.69;;;-144.06;59.89
11017;BME280;54687;50.800;6.772;2023-02-13T00:38:52;61143.22;;;-144.06;59.68
11017;BME280;54687;50.800;6.772;2023-02-13T00:41:20;61147.41;;;-144.06;59.77
11017;BME280;54687;50.800;6.772;2023-02-13T00:43:47;61107.59;;;-144.06;59.69
11017;BME280;54687;50.800;6.772;2023-02-13T00:46:15;61109.69;;;-144.06;59.77
11017;BME280;54687;50.800;6.772;2023-02-13T00:48:42;61172.56;;;-144.06;59.90
11017;BME280;54687;50.800;6.772;2023-02-13T00:51:10;61189.34;;;-144.06;59.76
11017;BME280;54687;50.800;6.772;2023-02-13T00:53:37;61122.25;;;-144.06;60.09
11017;BME280;54687;50.800;6.772;2023-02-13T00:56:05;61143.22;;;-144.06;59.90
11017;BME280;54687;50.800;6.772;2023-02-13T00:58:32;61084.53;;;-144.06;59.78
11017;BME280;54687;50.800;6.772;2023-02-13T01:00:59;61139.03;;;-144.06;60.06
11017;BME280;54687;50.800;6.772;2023-02-13T01:03:27;61113.88;;;-144.06;60.04
11017;BME280;54687;50.800;6.772;2023-02-13T01:05:55;61134.84;;;-144.06;60.06
11017;BME280;54687;50.800;6.772;2023-02-13T01:08:22;61155.81;;;-144.06;60.03
11017;BME280;54687;50.800;6.772;2023-02-13T01:10:49;61149.50;;;-144.06;60.38
11017;BME280;54687;50.800;6.772;2023-02-13T01:13:17;61168.38;;;-144.06;60.19
11017;BME280;54687;50.800;6.772;2023-02-13T01:15:44;61164.19;;;-144.06;60.16
11017;BME280;54687;50.800;6.772;2023-02-13T01:18:12;61130.66;;;-144.06;60.21
11017;BME280;54687;50.800;6.772;2023-02-13T01:20:40;61168.38;;;-144.06;60.30
11017;BME280;54687;50.800;6.772;2023-02-13T01:23:08;61155.81;;;-144.06;60.19
11017;BME280;54687;50.800;6.772;2023-02-13T01:25:40;61151.59;;;-144.06;60.31
11017;BME280;54687;50.800;6.772;2023-02-13T01:28:07;61185.16;;;-144.06;60.28
11017;BME280;54687;50.800;6.772;2023-02-13T01:30:34;61139.03;;;-144.06;60.15
11017;BME280;54687;50.800;6.772;2023-02-13T01:33:00;61128.53;;;-144.06;60.27
11017;BME280;54687;50.800;6.772;2023-02-13T01:35:27;61141.13;;;-144.06;60.41
11017;BME280;54687;50.800;6.772;2023-02-13T01:37:55;61172.56;;;-144.06;60.21
11017;BME280;54687;50.800;6.772;2023-02-13T01:40:22;61145.31;;;-144.06;60.22
11017;BME280;54687;50.800;6.772;2023-02-13T01:42:48;61180.97;;;-144.06;60.25
11017;BME280;54687;50.800;6.772;2023-02-13T01:45:23;61170.47;;;-144.06;60.05
11017;BME280;54687;50.800;6.772;2023-02-13T01:47:53;61155.81;;;-144.06;60.17
11017;BME280;54687;50.800;6.772;2023-02-13T01:50:24;61132.75;;;-144.06;60.15
11017;BME280;54687;50.800;6.772;2023-02-13T01:52:58;61139.03;;;-144.06;60.36
11017;BME280;54687;50.800;6.772;2023-02-13T01:55:27;61149.50;;;-144.06;60.18
11017;BME280;54687;50.800;6.772;2023-02-13T01:57:58;61166.28;;;-144.06;60.44
11017;BME280;54687;50.800;6.772;2023-02-13T02:00:27;61126.44;;;-144.06;60.28
11017;BME280;54687;50.800;6.772;2023-02-13T02:02:58;61141.13;;;-144.06;60.22
11017;BME280;54687;50.800;6.772;2023-02-13T02:05:28;61174.66;;;-144.06;60.34
11017;BME280;54687;50.800;6.772;2023-02-13T02:07:58;61174.66;;;-144.06;60.41
11017;BME280;54687;50.800;6.772;2023-02-13T02:10:25;61157.91;;;-144.06;60.66
11017;BME280;54687;50.800;6.772;2023-02-13T02:12:57;61139.03;;;-144.06;60.64
11017;BME280;54687;50.800;6.772;2023-02-13T02:15:24;61153.69;;;-144.06;60.84
11017;BME280;54687;50.800;6.772;2023-02-13T02:17:50;61155.81;;;-144.06;61.14
11017;BME280;54687;50.800;6.772;2023-02-13T02:20:25;61145.31;;;-144.06;61.44
11017;BME280;54687;50.800;6.772;2023-02-13T02:23:23;61120.16;;;-144.06;61.61
11017;BME280;54687;50.800;6.772;2023-02-13T02:29:17;61155.81;;;-144.06;61.95
11017;BME280;54687;50.800;6.772;2023-02-13T02:32:18;61149.50;;;-144.06;61.97
11017;BME280;54687;50.800;6.772;2023-02-13T02:34:53;61153.69;;;-144.06;62.24
11017;BME280;54687;50.800;6.772;2023-02-13T02:37:36;61155.81;;;-144.06;62.35
11017;BME280;54687;50.800;6.772;2023-02-13T02:40:19;61130.66;;;-144.06;62.67
11017;BME280;54687;50.800;6.772;2023-02-13T02:42:59;61126.44;;;-144.06;62.79
11017;BME280;54687;50.800;6.772;2023-02-13T02:45:34;61113.88;;;-144.06;63.04
11017;BME280;54687;50.800;6.772;2023-02-13T02:48:13;61139.03;;;-144.06;63.43
11017;BME280;54687;50.800;6.772;2023-02-13T02:51:06;61160.00;;;-144.06;63.44
11017;BME280;54687;50.800;6.772;2023-02-13T02:53:39;61134.84;;;-144.06;63.64
11017;BME280;54687;50.800;6.772;2023-02-13T02:56:12;61174.66;;;-144.06;63.54
11017;BME280;54687;50.800;6.772;2023-02-13T02:58:45;61147.41;;;-144.06;63.54
11017;BME280;54687;50.800;6.772;2023-02-13T03:01:45;61185.16;;;-144.06;63.82
11017;BME280;54687;50.800;6.772;2023-02-13T03:04:47;61176.75;;;-144.06;64.05
11017;BME280;54687;50.800;6.772;2023-02-13T03:07:32;61170.47;;;-144.06;63.99
11017;BME280;54687;50.800;6.772;2023-02-13T03:10:02;61155.81;;;-144.06;64.09
11017;BME280;54687;50.800;6.772;2023-02-13T03:12:53;61143.22;;;-144.06;64.09
11017;BME280;54687;50.800;6.772;2023-02-13T03:15:41;61151.59;;;-144.06;64.34
11017;BME280;54687;50.800;6.772;2023-02-13T03:18:23;61170.47;;;-144.06;64.40
11017;BME280;54687;50.800;6.772;2023-02-13T03:21:11;61139.03;;;-144.06;64.36
11017;BME280;54687;50.800;6.772;2023-02-13T03:24:02;61151.59;;;-144.06;64.66
11017;BME280;54687;50.800;6.772;2023-02-13T03:26:37;61206.09;;;-144.06;64.97
11017;BME280;54687;50.800;6.772;2023-02-13T03:29:26;61157.91;;;-144.06;64.76
11017;BME280;54687;50.800;6.772;2023-02-13T03:32:19;61172.56;;;-144.06;64.99
11017;BME280;54687;50.800;6.772;2023-02-13T03:34:55;61172.56;;;-144.06;65.12
11017;BME280;54687;50.800;6.772;2023-02-13T03:37:48;61155.81;;;-144.06;65.07
11017;BME280;54687;50.800;6.772;2023-02-13T03:40:25;61134.84;;;-144.06;65.19
11017;BME280;54687;50.800;6.772;2023-02-13T03:42:58;61183.06;;;-144.06;65.17
11017;BME280;54687;50.800;6.772;2023-02-13T03:45:31;61174.66;;;-144.06;65.14
11017;BME280;54687;50.800;6.772;2023-02-13T03:48:24;61147.41;;;-144.06;65.32
11017;BME280;54687;50.800;6.772;2023-02-13T03:51:14;61166.28;;;-144.06;65.35
11017;BME280;54687;50.800;6.772;2023-02-13T03:53:45;61164.19;;;-144.06;65.44
11017;BME280;54687;50.800;6.772;2023-02-13T03:56:16;61155.81;;;-144.06;65.46
11017;BME280;54687;50.800;6.772;2023-02-13T03:59:02;61227.06;;;-144.06;65.73
11017;BME280;54687;50.800;6.772;2023-02-13T04:01:45;61197.72;;;-144.06;65.55
11017;BME280;54687;50.800;6.772;2023-02-13T04:04:21;61172.56;;;-144.06;65.60
11017;BME280;54687;50.800;6.772;2023-02-13T04:06:54;61172.56;;;-144.06;65.68
11017;BME280;54687;50.800;6.772;2023-02-13T04:09:24;61164.19;;;-144.06;65.78
11017;BME280;54687;50.800;6.772;2023-02-13T04:11:56;61201.91;;;-144.06;66.00
11017;BME280;54687;50.800;6.772;2023-02-13T04:14:27;61155.81;;;-144.06;66.09
11017;BME280;54687;50.800;6.772;2023-02-13T04:16:57;61180.97;;;-144.06;66.09
11017;BME280;54687;50.800;6.772;2023-02-13T04:19:28;61172.56;;;-144.06;66.17
11017;BME280;54687;50.800;6.772;2023-02-13T04:21:56;61201.91;;;-144.06;66.42
11017;BME280;54687;50.800;6.772;2023-02-13T04:24:26;61168.38;;;-144.06;66.37
11017;BME280;54687;50.800;6.772;2023-02-13T04:26:53;61166.28;;;-144.06;66.30
11017;BME280;54687;50.800;6.772;2023-02-13T04:29:22;61153.69;;;-144.06;66.44
11017;BME280;54687;50.800;6.772;2023-02-13T04:31:49;61155.81;;;-144.06;66.51
11017;BME280;54687;50.800;6.772;2023-02-13T04:34:16;61197.72;;;-144.06;66.42
11017;BME280;54687;50.800;6.772;2023-02-13T04:36:43;61185.16;;;-144.06;66.35
11017;BME280;54687;50.800;6.772;2023-02-13T04:39:10;61180.97;;;-144.06;66.32
11017;BME280;54687;50.800;6.772;2023-02-13T04:41:38;61147.41;;;-144.06;66.46
11017;BME280;54687;50.800;6.772;2023-02-13T04:44:05;61185.16;;;-144.06;66.37
11017;BME280;54687;50.800;6.772;2023-02-13T04:46:32;61199.81;;;-144.06;66.29
11017;BME280;54687;50.800;6.772;2023-02-13T04:48:58;61176.75;;;-144.06;66.31
11017;BME280;54687;50.800;6.772;2023-02-13T04:51:25;61164.19;;;-144.06;66.33
11017;BME280;54687;50.800;6.772;2023-02-13T04:53:52;61180.97;;;-144.06;66.46
11017;BME280;54687;50.800;6.772;2023-02-13T04:56:18;61201.91;;;-144.06;66.66
11017;BME280;54687;50.800;6.772;2023-02-13T04:58:46;61180.97;;;-144.06;66.55
11017;BME280;54687;50.800;6.772;2023-02-13T05:01:14;61139.03;;;-144.06;66.41
11017;BME280;54687;50.800;6.772;2023-02-13T05:03:41;61178.84;;;-144.06;66.40
11017;BME280;54687;50.800;6.772;2023-02-13T05:06:08;61139.03;;;-144.06;66.68
11017;BME280;54687;50.800;6.772;2023-02-13T05:08:35;61218.69;;;-144.06;66.49
11017;BME280;54687;50.800;6.772;2023-02-13T05:11:01;61206.09;;;-144.06;66.45
11017;BME280;54687;50.800;6.772;2023-02-13T05:13:28;61212.41;;;-144.06;66.44
11017;BME280;54687;50.800;6.772;2023-02-13T05:15:56;61180.97;;;-144.06;66.66
11017;BME280;54687;50.800;6.772;2023-02-13T05:18:23;61193.53;;;-144.06;66.48
11017;BME280;54687;50.800;6.772;2023-02-13T05:20:49;61191.44;;;-144.06;66.66
11017;BME280;54687;50.800;6.772;2023-02-13T05:23:30;61210.31;;;-144.06;66.78
11017;BME280;54687;50.800;6.772;2023-02-13T05:25:57;61164.19;;;-144.06;66.64
11017;BME280;54687;50.800;6.772;2023-02-13T05:28:24;61185.16;;;-144.06;66.80
11017;BME280;54687;50.800;6.772;2023-02-13T05:31:09;61162.09;;;-144.06;66.63
11017;BME280;54687;50.800;6.772;2023-02-13T05:33:36;61183.06;;;-144.06;66.92
11017;BME280;54687;50.800;6.772;2023-02-13T05:36:03;61185.16;;;-144.06;66.77
11017;BME280;54687;50.800;6.772;2023-02-13T05:38:30;61195.63;;;-144.06;66.80
11017;BME280;54687;50.800;6.772;2023-02-13T05:40:57;61168.38;;;-144.06;66.97
11017;BME280;54687;50.800;6.772;2023-02-13T05:43:24;61166.28;;;-144.06;66.96
11017;BME280;54687;50.800;6.772;2023-02-13T05:45:50;61180.97;;;-144.06;67.03
11017;BME280;54687;50.800;6.772;2023-02-13T05:48:18;61164.19;;;-144.06;67.05
11017;BME280;54687;50.800;6.772;2023-02-13T05:50:45;61197.72;;;-144.06;66.97
11017;BME280;54687;50.800;6.772;2023-02-13T05:53:12;61185.16;;;-144.06;66.98
11017;BME280;54687;50.800;6.772;2023-02-13T05:55:39;61172.56;;;-144.06;67.16
11017;BME280;54687;50.800;6.772;2023-02-13T05:58:05;61168.38;;;-144.06;66.80
11017;BME280;54687;50.800;6.772;2023-02-13T06:00:33;61193.53;;;-144.06;66.85
11017;BME280;54687;50.800;6.772;2023-02-13T06:03:00;61195.63;;;-144.06;67.15
11017;BME280;54687;50.800;6.772;2023-02-13T06:05:28;61172.56;;;-144.06;66.90
11017;BME280;54687;50.800;6.772;2023-02-13T06:07:55;61214.50;;;-144.06;67.10
11017;BME280;54687;50.800;6.772;2023-02-13T06:10:21;61197.72;;;-144.06;67.01
11017;BME280;54687;50.800;6.772;2023-02-13T06:12:48;61180.97;;;-144.06;66.88
11017;BME280;54687;50.800;6.772;2023-02-13T06:15:15;61199.81;;;-144.06;67.21
11017;BME280;54687;50.800;6.772;2023-02-13T06:17:42;61151.59;;;-144.06;66.97
11017;BME280;54687;50.800;6.772;2023-02-13T06:20:09;61187.25;;;-144.06;67.03
11017;BME280;54687;50.800;6.772;2023-02-13T06:22:37;61168.38;;;-144.06;67.10
11017;BME280;54687;50.800;6.772;2023-02-13T06:25:04;61193.53;;;-144.06;66.90
11017;BME280;54687;50.800;6.772;2023-02-13T06:27:31;61170.47;;;-144.06;66.67
11017;BME280;54687;50.800;6.772;2023-02-13T06:29:58;61195.63;;;-144.06;66.45
11017;BME280;54687;50.800;6.772;2023-02-13T06:32:24;61160.00;;;-144.06;66.26
11017;BME280;54687;50.800;6.772;2023-02-13T06:34:51;61160.00;;;-144.06;66.73
11017;BME280;54687;50.800;6.772;2023-02-13T06:37:17;61185.16;;;-144.06;66.80
11017;BME280;54687;50.800;6.772;2023-02-13T06:39:45;61189.34;;;-144.06;66.65
11017;BME280;54687;50.800;6.772;2023-02-13T06:42:12;61229.16;;;-144.06;66.79
11017;BME280;54687;50.800;6.772;2023-02-13T06:44:39;61160.00;;;-144.06;66.72
11017;BME280;54687;50.800;6.772;2023-02-13T06:47:06;61216.59;;;-144.06;66.73
11017;BME280;54687;50.800;6.772;2023-02-13T06:49:32;61170.47;;;-144.06;66.66
11017;BME280;54687;50.800;6.772;2023-02-13T06:51:59;61157.91;;;-144.06;66.20
11017;BME280;54687;50.800;6.772;2023-02-13T06:54:26;61164.19;;;-144.06;65.97
11017;BME280;54687;50.800;6.772;2023-02-13T06:56:54;61212.41;;;-144.06;65.85
11017;BME280;54687;50.800;6.772;2023-02-13T06:59:20;61206.09;;;-144.06;65.84
11017;BME280;54687;50.800;6.772;2023-02-13T07:01:47;61162.09;;;-144.06;65.77
11017;BME280;54687;50.800;6.772;2023-02-13T07:04:13;61178.84;;;-144.06;65.34
11017;BME280;54687;50.800;6.772;2023-02-13T07:06:40;61189.34;;;-144.06;65.01
11017;BME280;54687;50.800;6.772;2023-02-13T07:09:06;61183.06;;;-144.06;65.24
11017;BME280;54687;50.800;6.772;2023-02-13T07:11:33;61172.56;;;-144.06;65.45
11017;BME280;54687;50.800;6.772;2023-02-13T07:14:03;61201.91;;;-144.06;65.47
11017;BME280;54687;50.800;6.772;2023-02-13T07:16:29;61151.59;;;-144.06;65.26
11017;BME280;54687;50.800;6.772;2023-02-13T07:18:56;61193.53;;;-144.06;65.42
11017;BME280;54687;50.800;6.772;2023-02-13T07:21:23;61199.81;;;-144.06;65.31
11017;BME280;54687;50.800;6.772;2023-02-13T07:23:50;61162.09;;;-144.06;65.23
11017;BME280;54687;50.800;6.772;2023-02-13T07:26:16;61208.22;;;-144.06;64.99
11017;BME280;54687;50.800;6.772;2023-02-13T07:28:43;61197.72;;;-144.06;65.15
11017;BME280;54687;50.800;6.772;2023-02-13T07:31:11;61164.19;;;-144.06;64.92
11017;BME280;54687;50.800;6.772;2023-02-13T07:33:38;61155.81;;;-144.06;64.90
11017;BME280;54687;50.800;6.772;2023-02-13T07:36:05;61193.53;;;-144.06;64.96
11017;BME280;54687;50.800;6.772;2023-02-13T07:38:32;61155.81;;;-144.06;64.82
11017;BME280;54687;50.800;6.772;2023-02-13T07:41:00;61164.19;;;-144.06;64.70
11017;BME280;54687;50.800;6.772;2023-02-13T07:43:27;61162.09;;;-144.06;64.69
11017;BME280;54687;50.800;6.772;2023-02-13T07:45:57;61160.00;;;-144.06;64.65
11017;BME280;54687;50.800;6.772;2023-02-13T07:48:25;61193.53;;;-144.06;64.67
11017;BME280;54687;50.800;6.772;2023-02-13T07:50:52;61134.84;;;-144.06;64.82
11017;BME280;54687;50.800;6.772;2023-02-13T07:53:19;61191.44;;;-144.06;65.07
11017;BME280;54687;50.800;6.772;2023-02-13T07:55:47;61164.19;;;-144.06;65.24
11017;BME280;54687;50.800;6.772;2023-02-13T07:58:13;61168.38;;;-144.06;65.29
11017;BME280;54687;50.800;6.772;2023-02-13T08:00:40;61193.53;;;-144.06;65.73
11017;BME280;54687;50.800;6.772;2023-02-13T08:03:08;61210.31;;;-144.06;65.68
11017;BME280;54687;50.800;6.772;2023-02-13T08:05:37;61256.41;;;-144.06;65.72
11017;BME280;54687;50.800;6.772;2023-02-13T08:08:05;61164.19;;;-144.06;65.72
11017;BME280;54687;50.800;6.772;2023-02-13T08:10:32;61218.69;;;-144.06;65.57
11017;BME280;54687;50.800;6.772;2023-02-13T08:13:17;61147.41;;;-144.06;65.30
11017;BME280;54687;50.800;6.772;2023-02-13T08:15:44;61172.56;;;-144.06;64.92
11017;BME280;54687;50.800;6.772;2023-02-13T08:18:11;61180.97;;;-144.06;64.85
11017;BME280;54687;50.800;6.772;2023-02-13T08:20:39;61160.00;;;-144.06;64.57
11017;BME280;54687;50.800;6.772;2023-02-13T08:23:09;61168.38;;;-144.06;64.33
11017;BME280;54687;50.800;6.772;2023-02-13T08:25:36;61172.56;;;-144.06;64.17
11017;BME280;54687;50.800;6.772;2023-02-13T08:28:04;61172.56;;;-144.06;63.70
11017;BME280;54687;50.800;6.772;2023-02-13T08:30:30;61199.81;;;-144.06;63.64
11017;BME280;54687;50.800;6.772;2023-02-13T08:32:57;61185.16;;;-144.06;63.16
11017;BME280;54687;50.800;6.772;2023-02-13T08:35:24;61155.81;;;-144.06;63.06
11017;BME280;54687;50.800;6.772;2023-02-13T08:37:55;61166.28;;;-144.06;62.54
11017;BME280;54687;50.800;6.772;2023-02-13T08:40:22;61145.31;;;-144.06;62.54
11017;BME280;54687;50.800;6.772;2023-02-13T08:42:49;61145.31;;;-144.06;62.27
11017;BME280;54687;50.800;6.772;2023-02-13T08:45:15;61130.66;;;-144.06;62.20
11017;BME280;54687;50.800;6.772;2023-02-13T08:47:42;61174.66;;;-144.06;61.71
11017;BME280;54687;50.800;6.772;2023-02-13T08:50:09;61178.84;;;-144.06;61.31
11017;BME280;54687;50.800;6.772;2023-02-13T08:52:36;61164.19;;;-144.06;61.38
11017;BME280;54687;50.800;6.772;2023-02-13T08:55:04;61147.41;;;-144.06;61.09
11017;BME280;54687;50.800;6.772;2023-02-13T08:57:32;61206.09;;;-144.06;60.94
11017;BME280;54687;50.800;6.772;2023-02-13T08:59:58;61157.91;;;-144.06;60.90
11017;BME280;54687;50.800;6.772;2023-02-13T09:02:26;61168.38;;;-144.06;60.82
11017;BME280;54687;50.800;6.772;2023-02-13T09:04:52;61189.34;;;-144.06;60.46
11017;BME280;54687;50.800;6.772;2023-02-13T09:07:19;61189.34;;;-144.06;59.81
11017;BME280;54687;50.800;6.772;2023-02-13T09:09:45;61143.22;;;-144.06;59.67
11017;BME280;54687;50.800;6.772;2023-02-13T09:12:13;61174.66;;;-144.06;59.52
11017;BME280;54687;50.800;6.772;2023-02-13T09:14:40;61176.75;;;-144.06;59.50
11017;BME280;54687;50.800;6.772;2023-02-13T09:17:07;61134.84;;;-144.06;59.01
11017;BME280;54687;50.800;6.772;2023-02-13T09:19:33;61189.34;;;-144.06;58.91
11017;BME280;54687;50.800;6.772;2023-02-13T09:22:00;61172.56;;;-144.06;58.67
11017;BME280;54687;50.800;6.772;2023-02-13T09:24:27;61166.28;;;-144.06;58.48
11017;BME280;54687;50.800;6.772;2023-02-13T09:26:54;61139.03;;;-144.06;57.95
11017;BME280;54687;50.800;6.772;2023-02-13T09:29:22;61160.00;;;-144.06;57.90
11017;BME280;54687;50.800;6.772;2023-02-13T09:31:49;61155.81;;;-144.06;57.62
11017;BME280;54687;50.800;6.772;2023-02-13T09:34:17;61122.25;;;-144.06;57.30
11017;BME280;54687;50.800;6.772;2023-02-13T09:36:43;61097.09;;;-144.06;56.77
11017;BME280;54687;50.800;6.772;2023-02-13T09:39:10;61122.25;;;-144.06;56.78
11017;BME280;54687;50.800;6.772;2023-02-13T09:41:39;61107.59;;;-144.06;56.66
11017;BME280;54687;50.800;6.772;2023-02-13T09:44:11;61141.13;;;-144.06;56.36
11017;BME280;54687;50.800;6.772;2023-02-13T09:47:01;61160.00;;;-144.06;55.85
11017;BME280;54687;50.800;6.772;2023-02-13T09:49:32;61118.06;;;-144.06;56.17
11017;BME280;54687;50.800;6.772;2023-02-13T09:52:00;61084.53;;;-144.06;55.49
11017;BME280;54687;50.800;6.772;2023-02-13T09:54:27;61172.56;;;-144.06;55.41
11017;BME280;54687;50.800;6.772;2023-02-13T09:56:58;61130.66;;;-144.06;54.99
11017;BME280;54687;50.800;6.772;2023-02-13T09:59:35;61105.50;;;-144.06;nan
11017;BME280;54687;50.800;6.772;2023-02-13T10:02:20;61120.16;;;-144.06;55.17
11017;BME280;54687;50.800;6.772;2023-02-13T10:04:55;61130.66;;;-144.06;54.91
11017;BME280;54687;50.800;6.772;2023-02-13T10:07:30;61076.13;;;-144.06;55.21
11017;BME280;54687;50.800;6.772;2023-02-13T10:10:06;61160.00;;;-144.06;54.21
11017;BME280;54687;50.800;6.772;2023-02-13T10:12:53;61084.53;;;-144.06;54.03
11017;BME280;54687;50.800;6.772;2023-02-13T10:15:27;61139.03;;;-144.06;53.86
11017;BME280;54687;50.800;6.772;2023-02-13T10:18:01;61097.09;;;-144.06;53.65
11017;BME280;54687;50.800;6.772;2023-02-13T10:20:32;61088.72;;;-144.06;53.32
11017;BME280;54687;50.800;6.772;2023-02-13T10:23:11;61162.09;;;-144.06;53.18
11017;BME280;54687;50.800;6.772;2023-02-13T10:25:45;61084.53;;;-144.06;53.39
11017;BME280;54687;50.800;6.772;2023-02-13T10:28:16;61155.81;;;-144.06;52.95
11017;BME280;54687;50.800;6.772;2023-02-13T10:30:51;61132.75;;;-144.06;52.78
11017;BME280;54687;50.800;6.772;2023-02-13T10:33:22;61126.44;;;-144.06;53.08
11017;BME280;54687;50.800;6.772;2023-02-13T10:35:55;61122.25;;;-144.06;52.09
11017;BME280;54687;50.800;6.772;2023-02-13T10:38:28;61105.50;;;-144.06;52.29
11017;BME280;54687;50.800;6.772;2023-02-13T10:41:03;61130.66;;;-144.06;52.12
11017;BME280;54687;50.800;6.772;2023-02-13T10:43:38;61109.69;;;-144.06;51.82
11017;BME280;54687;50.800;6.772;2023-02-13T10:46:12;61113.88;;;-144.06;52.29
11017;BME280;54687;50.800;6.772;2023-02-13T10:49:02;61080.34;;;-144.06;51.55
11017;BME280;54687;50.800;6.772;2023-02-13T10:51:39;61109.69;;;-144.06;51.56
11017;BME280;54687;50.800;6.772;2023-02-13T10:54:29;61103.38;;;-144.06;51.36
11017;BME280;54687;50.800;6.772;2023-02-13T10:57:06;61048.88;;;-144.06;50.92
11017;BME280;54687;50.800;6.772;2023-02-13T10:59:53;61115.97;;;-144.06;50.72
11017;BME280;54687;50.800;6.772;2023-02-13T11:02:25;61107.59;;;-144.06;51.16
11017;BME280;54687;50.800;6.772;2023-02-13T11:04:58;61097.09;;;-144.06;50.82
11017;BME280;54687;50.800;6.772;2023-02-13T11:07:26;61107.59;;;-144.06;50.84
11017;BME280;54687;50.800;6.772;2023-02-13T11:09:58;61063.56;;;-144.06;50.66
11017;BME280;54687;50.800;6.772;2023-02-13T11:12:30;61076.13;;;-144.06;50.46
11017;BME280;54687;50.800;6.772;2023-02-13T11:14:58;61061.47;;;-144.06;49.77
11017;BME280;54687;50.800;6.772;2023-02-13T11:17:28;61074.03;;;-144.06;50.01
11017;BME280;54687;50.800;6.772;2023-02-13T11:19:59;61038.41;;;-144.06;50.26
11017;BME280;54687;50.800;6.772;2023-02-13T11:22:30;61076.13;;;-144.06;49.83
11017;BME280;54687;50.800;6.772;2023-02-13T11:25:00;61046.78;;;-144.06;49.54
11017;BME280;54687;50.800;6.772;2023-02-13T11:27:31;61113.88;;;-144.06;49.45
11017;BME280;54687;50.800;6.772;2023-02-13T11:30:00;61088.72;;;-144.06;49.41
11017;BME280;54687;50.800;6.772;2023-02-13T11:32:28;61090.81;;;-144.06;49.20
11017;BME280;54687;50.800;6.772;2023-02-13T11:34:57;61004.88;;;-144.06;49.48
11017;BME280;54687;50.800;6.772;2023-02-13T11:37:31;61080.34;;;-144.06;49.22
11017;BME280;54687;50.800;6.772;2023-02-13T11:39:58;61097.09;;;-144.06;48.98
11017;BME280;54687;50.800;6.772;2023-02-13T11:42:28;61130.66;;;-144.06;48.86
11017;BME280;54687;50.800;6.772;2023-02-13T11:44:59;61059.38;;;-144.06;48.74
11017;BME280;54687;50.800;6.772;2023-02-13T11:47:35;61063.56;;;-144.06;48.83
11017;BME280;54687;50.800;6.772;2023-02-13T11:50:04;61042.59;;;-144.06;49.03
11017;BME280;54687;50.800;6.772;2023-02-13T11:52:32;61017.44;;;-144.06;48.70
11017;BME280;54687;50.800;6.772;2023-02-13T11:55:02;61088.72;;;-144.06;48.95
11017;BME280;54687;50.800;6.772;2023-02-13T11:57:30;61088.72;;;-144.06;48.88
11017;BME280;54687;50.800;6.772;2023-02-13T11:59:59;61059.38;;;-144.06;48.62
11017;BME280;54687;50.800;6.772;2023-02-13T12:02:27;61042.59;;;-144.06;48.00
11017;BME280;54687;50.800;6.772;2023-02-13T12:05:15;61032.13;;;-144.06;47.72
11017;BME280;54687;50.800;6.772;2023-02-13T12:07:43;61084.53;;;-144.06;48.24
11017;BME280;54687;50.800;6.772;2023-02-13T12:10:18;61086.63;;;-144.06;48.14
11017;BME280;54687;50.800;6.772;2023-02-13T12:12:50;61092.91;;;-144.06;47.90
11017;BME280;54687;50.800;6.772;2023-02-13T12:15:20;61051.00;;;-144.06;47.33
11017;BME280;54687;50.800;6.772;2023-02-13T12:17:53;61030.03;;;-144.06;47.88
11017;BME280;54687;50.800;6.772;2023-02-13T12:20:26;61051.00;;;-144.06;47.95
11017;BME280;54687;50.800;6.772;2023-02-13T12:23:01;61057.28;;;-144.06;47.20
11017;BME280;54687;50.800;6.772;2023-02-13T12:25:51;61030.03;;;-144.06;46.90
11017;BME280;54687;50.800;6.772;2023-02-13T12:28:27;61034.22;;;-144.06;46.89
11017;BME280;54687;50.800;6.772;2023-02-13T12:31:20;61063.56;;;-144.06;46.99
11017;BME280;54687;50.800;6.772;2023-02-13T12:34:23;61051.00;;;-144.06;46.53
11017;BME280;54687;50.800;6.772;2023-02-13T12:37:05;61046.78;;;-144.06;46.28
11017;BME280;54687;50.800;6.772;2023-02-13T12:39:40;61011.16;;;-144.06;46.04
11017;BME280;54687;50.800;6.772;2023-02-13T12:42:26;61017.44;;;-144.06;46.01
11017;BME280;54687;50.800;6.772;2023-02-13T12:45:10;61025.84;;;-144.06;46.18
11017;BME280;54687;50.800;6.772;2023-02-13T12:47:46;61038.41;;;-144.06;46.51
11017;BME280;54687;50.800;6.772;2023-02-13T12:50:25;61038.41;;;-144.06;46.15
11017;BME280;54687;50.800;6.772;2023-02-13T12:56:06;61069.84;;;-144.06;46.26
11017;BME280;54687;50.800;6.772;2023-02-13T12:58:52;61013.25;;;-144.06;46.13
11017;BME280;54687;50.800;6.772;2023-02-13T13:04:19;61034.22;;;-144.06;45.88
11017;BME280;54687;50.800;6.772;2023-02-13T13:07:04;61021.63;;;-144.06;45.54
11017;BME280;54687;50.800;6.772;2023-02-13T13:09:50;61059.38;;;-144.06;45.75
11017;BME280;54687;50.800;6.772;2023-02-13T13:12:40;61053.09;;;-144.06;45.96